Arab, Missouri
Current Conditions -  °F | °C
As of 9:53 AM on Tuesday 21 Oct 2014 (Local Time) from KCGI Reporting Station
Clear Clear  
Wind Chill: 60°   Ceiling: Unl
Heat Index: 60°   Visibility: 10mi
Dew Point: 49°   Wind: 5mph
Humidity: 67%   Direction: 320°NW
Pressure: 30.11"   Gusts: NA
Location:  37.1241°N, 90.0834°W
Report Text: KCGI 211453Z 32004KT 10SM CLR 16/09 A3011 RMK AO2 SLP195 T01560094 53009
Loading
Personal Weather Stations






























Interactive Weather Map
Tropical Storm Tracking
New forecast layout! Learn more

10-Day Weather Forecast

Advertisements
Track Severe Weather on mobile